Rechercher aéroport 
image banner adimage banner adimage banner ad
image banner ad

CL67 - Platform Hidalgo

Situé à Santa Maria, United States

ICAO - CL67, IATA -

Données fournies par Airmate  

Information générale

Coordonnées: N34°29'42" W120°42'12"
Élévation : 162 feet MSL.
Variation magnétique : 14° East
Voir autres Aéroports à California

Données opérationnelles

Special qualification required
Heure actuelle UTC:
Heure actuelle locale:
Météo à : KLPC - Lompoc ( 29 km )
METAR: KLPC 180556Z AUTO 08003KT 10SM OVC018 13/10 A3006 RMK AO2 SLP179 T01280100 10189 20122 51015
Voir NOTAMs / SUP AIP / TFR affectant cet aéroport [VIEW]
Fréquences de communication: [VIEW]

Pistes:

Coordonnées de l'aéroport

Adresse: Santa Maria United States

Vue satellite de CL67